Time;durP1;ratioP1;P1;durP2;ratioP2;P2;SDS_P1;SDS_P2;PMS_P1;PMS_P2;Temp;Humidity;BMP_temperature;BMP_pressure;BME280_temperature;BME280_humidity;BME280_pressure;Samples;Min_cycle;Max_cycle;Signal;HPM_P1;HPM_P2
2022/02/03 12:47:31;;;;;;;8.65;4.07;;;;;;;9.31;71.11;101235.38;2097275;28;20863;-62
2022/02/03 12:48:34;;;;;;;5.32;2.75;;;;;;;9.14;71.26;101239.38;2097143;28;20433;-63
2022/02/03 12:49:39;;;;;;;8.30;4.07;;;;;;;8.89;72.44;101232.25;2096579;28;20044;-62
2022/02/03 12:50:41;;;;;;;9.13;4.18;;;;;;;8.72;73.46;101244.00;2096663;28;20028;-62
2022/02/03 12:51:41;;;;;;;7.82;4.22;;;;;;;8.69;74.38;101238.88;2097197;28;20016;-62
2022/02/03 12:52:45;;;;;;;9.13;4.50;;;;;;;8.65;74.65;101239.88;2097259;28;20032;-64
2022/02/03 12:53:46;;;;;;;8.93;4.40;;;;;;;8.59;75.36;101247.88;2097271;28;20113;-64
2022/02/03 12:54:46;;;;;;;8.73;3.97;;;;;;;8.53;75.09;101246.28;2096589;28;20125;-63
2022/02/03 12:55:51;;;;;;;5.30;3.83;;;;;;;8.35;75.61;101240.63;2096684;28;20036;-62
2022/02/03 12:57:01;;;;;;;5.97;3.30;;;;;;;8.15;76.25;101248.13;2097266;28;20386;-63
2022/02/03 12:58:14;;;;;;;8.13;3.55;;;;;;;8.05;77.37;101244.91;2097233;28;20048;-64
2022/02/03 12:59:16;;;;;;;7.57;3.60;;;;;;;7.99;77.78;101238.97;2096433;28;20032;-61
2022/02/03 13:00:30;;;;;;;9.15;4.10;;;;;;;7.93;77.97;101241.72;2096573;28;20066;-60
2022/02/03 13:01:36;;;;;;;10.05;3.60;;;;;;;7.88;78.34;101240.97;2097158;28;20472;-64
2022/02/03 13:02:36;;;;;;;6.80;3.10;;;;;;;7.87;78.88;101231.47;2097130;28;20059;-63
2022/02/03 13:03:41;;;;;;;6.07;3.37;;;;;;;7.84;78.67;101234.16;2097152;28;20031;-66
2022/02/03 13:04:41;;;;;;;8.95;3.90;;;;;;;7.77;79.05;101233.44;2097151;28;20021;-60
2022/02/03 13:05:51;;;;;;;6.77;3.53;;;;;;;7.68;79.89;101234.53;2096558;28;20044;-59
2022/02/03 13:07:03;;;;;;;7.65;3.60;;;;;;;7.63;80.42;101235.53;2096579;28;20020;-61
2022/02/03 13:08:04;;;;;;;;;;;;;;;7.65;80.34;101232.00;2097523;28;20028;-60
2022/02/03 13:09:08;;;;;;;6.85;5.28;;;;;;;7.60;80.10;101231.25;2097263;28;19912;-60
2022/02/03 13:10:10;;;;;;;7.22;3.50;;;;;;;7.55;80.55;101227.91;2096428;28;20032;-59
2022/02/03 13:11:19;;;;;;;7.88;3.38;;;;;;;7.58;81.26;101227.84;2096424;28;20040;-61
2022/02/03 13:12:30;;;;;;;6.50;3.30;;;;;;;7.58;80.71;101227.84;2096367;28;20431;-62
2022/02/03 13:13:52;;;;;;;8.50;3.50;;;;;;;7.58;80.85;101225.25;2096614;28;20021;-61
2022/02/03 13:14:56;;;;;;;7.65;3.88;;;;;;;7.64;81.02;101222.50;2095922;28;20064;-61
2022/02/03 13:15:57;;;;;;;8.48;3.58;;;;;;;7.70;81.36;101219.75;2096713;28;20036;-61
2022/02/03 13:17:10;;;;;;;5.65;3.10;;;;;;;7.73;81.25;101222.28;2097167;28;20052;-60
2022/02/03 13:18:25;;;;;;;6.30;3.78;;;;;;;7.70;80.75;101211.94;2097040;28;20055;-59
2022/02/03 13:19:38;;;;;;;6.43;4.18;;;;;;;7.63;81.24;101212.97;2097078;28;20020;-61
2022/02/03 13:20:47;;;;;;;9.07;4.15;;;;;;;7.65;81.59;101208.63;2097046;28;20016;-60
2022/02/03 13:23:02;;;;;;;5.90;3.20;;;;;;;7.59;81.79;101219.16;2097058;28;20056;-59
2022/02/03 13:24:29;;;;;;;11.73;5.28;;;;;;;7.57;83.27;101211.38;2097004;28;20036;-60
2022/02/03 13:26:33;;;;;;;6.47;3.63;;;;;;;7.47;82.11;101210.75;2096772;28;20033;-61
2022/02/03 13:27:01;;;;;;;8.13;3.35;;;;;;;7.43;82.59;101214.31;2100511;28;20137;-61
2022/02/03 13:28:16;;;;;;;9.77;4.28;;;;;;;7.43;82.80;101216.06;2096971;28;20037;-61
2022/02/03 13:29:25;;;;;;;8.35;4.07;;;;;;;7.47;83.60;101213.34;2096918;28;20021;-62
2022/02/03 13:30:48;;;;;;;6.13;3.78;;;;;;;7.49;83.28;101217.69;2097032;28;20017;-65
2022/02/03 13:32:04;;;;;;;8.40;4.03;;;;;;;7.51;83.67;101205.50;2096944;28;20025;-64
2022/02/03 13:33:05;;;;;;;9.40;3.83;;;;;;;7.47;82.61;101210.75;2096975;28;20024;-63
2022/02/03 13:34:14;;;;;;;7.70;3.60;;;;;;;7.42;82.82;101215.22;2096911;28;20028;-64
2022/02/03 13:35:25;;;;;;;8.65;3.60;;;;;;;7.39;82.96;101212.66;2096755;28;20499;-62
2022/02/03 13:36:38;;;;;;;8.65;4.03;;;;;;;7.34;83.02;101215.41;2096898;28;20027;-61
2022/02/03 13:37:45;;;;;;;6.78;3.17;;;;;;;7.36;83.12;101211.91;2096802;28;20057;-60
2022/02/03 13:39:03;;;;;;;8.73;3.40;;;;;;;7.38;82.83;101208.38;2096947;28;20533;-59
2022/02/03 13:40:12;;;;;;;8.23;3.60;;;;;;;7.41;82.72;101205.72;2096849;28;20067;-60
2022/02/03 13:41:17;;;;;;;7.15;3.55;;;;;;;7.42;83.54;101204.81;2096844;28;20024;-60
2022/02/03 13:42:18;;;;;;;7.32;3.22;;;;;;;7.44;83.21;101216.03;2096857;28;20029;-60
2022/02/03 13:43:24;;;;;;;9.00;4.17;;;;;;;7.42;83.22;101210.00;2096241;28;20064;-59
2022/02/03 13:44:28;;;;;;;5.22;3.08;;;;;;;7.37;83.44;101213.59;2096248;28;20024;-60
2022/02/03 13:45:29;;;;;;;6.60;4.60;;;;;;;7.33;84.49;101205.03;2096837;28;20020;-60
2022/02/03 13:46:36;;;;;;;8.02;4.03;;;;;;;7.31;85.04;101214.59;2095860;28;20013;-61
2022/02/03 13:47:37;;;;;;;7.88;3.50;;;;;;;7.30;85.12;101207.72;2096078;28;20032;-60
2022/02/03 13:48:39;;;;;;;9.93;3.10;;;;;;;7.28;85.13;101210.34;2096194;28;20040;-60
2022/02/03 13:49:42;;;;;;;7.03;4.00;;;;;;;7.27;85.04;101207.75;2095937;28;20028;-60
2022/02/03 13:50:55;;;;;;;8.07;3.58;;;;;;;7.29;84.63;101206.84;2096140;28;20024;-61
2022/02/03 13:52:10;;;;;;;5.95;3.03;;;;;;;7.32;85.28;101204.19;2096777;28;20025;-60
2022/02/03 13:53:18;;;;;;;9.52;3.70;;;;;;;7.34;85.29;101214.53;2096707;28;20099;-60
2022/02/03 14:12:34;;;;;;;7.80;3.70;;;;;;;7.09;87.33;101184.78;2081872;28;20056;-59
2022/02/03 14:18:20;;;;;;;7.63;3.53;;;;;;;7.05;87.41;101185.75;2081975;28;20029;-60
2022/02/03 14:27:37;;;;;;;6.78;3.33;;;;;;;7.03;88.54;101176.28;2091038;28;20033;-59
2022/02/03 14:28:39;;;;;;;6.43;4.00;;;;;;;6.98;89.42;101175.53;2091012;28;20104;-60
2022/02/03 14:29:45;;;;;;;7.03;4.32;;;;;;;6.91;89.96;101175.66;2090321;28;20439;-60
2022/02/03 14:30:49;;;;;;;8.77;4.47;;;;;;;6.83;90.79;101173.25;2090442;28;20059;-60
2022/02/03 14:31:59;;;;;;;13.00;5.68;;;;;;;6.78;91.13;101179.41;2091034;28;20037;-60
2022/02/03 14:33:01;;;;;;;11.15;3.95;;;;;;;6.77;91.95;101177.72;2091038;28;20021;-60
2022/02/03 14:34:08;;;;;;;10.45;3.60;;;;;;;6.75;92.48;101182.06;2090942;28;20036;-61
2022/02/03 14:35:10;;;;;;;7.95;3.80;;;;;;;6.72;92.47;101179.53;2090943;28;20043;-59
2022/02/03 14:36:15;;;;;;;7.90;4.15;;;;;;;6.73;93.01;101181.22;2090924;28;20448;-60
2022/02/03 14:38:05;;;;;;;7.78;3.70;;;;;;;6.68;93.24;101174.41;2090869;28;20429;-60
2022/02/03 14:39:09;;;;;;;7.97;4.32;;;;;;;6.66;93.80;101178.78;2086870;28;20438;-60
2022/02/03 14:41:15;;;;;;;9.35;4.10;;;;;;;6.61;94.91;101172.84;2091072;28;20032;-60
2022/02/03 14:42:16;;;;;;;7.95;4.45;;;;;;;6.62;94.97;101169.38;2090975;28;20397;-59
2022/02/03 14:43:16;;;;;;;7.82;3.88;;;;;;;6.63;95.72;101176.25;2090917;28;20036;-59
2022/02/03 14:44:18;;;;;;;7.37;4.63;;;;;;;6.63;95.44;101165.88;2090304;28;20092;-59
2022/02/03 14:45:19;;;;;;;7.30;3.95;;;;;;;6.65;95.84;101169.31;2090342;28;20124;-60
2022/02/03 14:46:19;;;;;;;5.53;3.53;;;;;;;6.67;94.74;101161.50;2090883;28;20036;-59
2022/02/03 14:47:22;;;;;;;8.33;4.57;;;;;;;6.68;94.66;101158.84;2090702;28;20323;-59
2022/02/03 14:48:22;;;;;;;7.95;4.25;;;;;;;6.69;95.25;101160.56;2090184;28;20064;-60
2022/02/03 14:49:23;;;;;;;8.53;4.40;;;;;;;6.70;95.58;101157.09;2090190;28;20025;-58
2022/02/03 14:50:23;;;;;;;7.27;4.43;;;;;;;6.69;95.02;101157.13;2090401;28;20107;-59
2022/02/03 14:51:30;;;;;;;8.67;5.40;;;;;;;6.66;95.40;101150.25;2090166;28;20564;-59
2022/02/03 14:52:45;;;;;;;10.07;4.47;;;;;;;6.63;95.87;101149.44;2082781;28;20544;-60
2022/02/03 14:53:54;;;;;;;8.57;4.82;;;;;;;6.63;95.85;101152.91;2090422;28;20027;-60
2022/02/03 14:58:51;;;;;;;7.68;4.25;;;;;;;6.63;95.46;101139.94;2090838;28;20044;-60
2022/02/03 14:59:51;;;;;;;7.50;4.60;;;;;;;6.58;95.50;101139.19;2091004;28;20017;-61
2022/02/03 15:00:52;;;;;;;9.87;4.17;;;;;;;6.59;95.35;101137.44;2090169;28;20037;-61
2022/02/03 15:01:52;;;;;;;9.40;4.70;;;;;;;6.59;96.40;101147.81;2090078;28;20074;-61
2022/02/03 15:02:53;;;;;;;9.90;4.17;;;;;;;6.60;96.56;101139.16;2090703;28;20039;-59
2022/02/03 15:03:56;;;;;;;8.23;4.43;;;;;;;6.62;96.14;101138.25;2090826;28;20473;-60
2022/02/03 15:05:05;;;;;;;8.45;4.35;;;;;;;6.64;96.57;101140.81;2090961;28;20025;-63
2022/02/03 15:06:10;;;;;;;7.43;4.47;;;;;;;6.65;95.63;101139.91;2090972;28;20107;-59
2022/02/03 15:07:11;;;;;;;8.45;4.72;;;;;;;6.65;95.77;101139.91;2090214;28;20108;-58
2022/02/03 15:10:47;;;;;;;8.45;4.55;;;;;;;6.61;95.58;101131.34;2090326;28;20086;-61
2022/02/03 15:14:06;;;;;;;9.90;4.53;;;;;;;6.59;95.48;101125.34;2091050;28;20037;-60
2022/02/03 15:15:09;;;;;;;10.13;4.77;;;;;;;6.58;95.62;101126.22;2091017;28;20037;-60
2022/02/03 15:16:10;;;;;;;10.80;4.45;;;;;;;6.59;96.03;101127.06;2090195;28;20031;-59
2022/02/03 15:17:10;;;;;;;6.85;4.55;;;;;;;6.60;96.34;101119.25;2090260;28;20029;-59
2022/02/03 15:18:11;;;;;;;6.23;4.57;;;;;;;6.60;96.81;101124.44;2090857;28;20039;-60
2022/02/03 15:19:11;;;;;;;12.10;4.70;;;;;;;6.60;96.93;101124.44;2090884;28;20029;-61
2022/02/03 15:20:11;;;;;;;8.63;5.17;;;;;;;6.59;96.76;101120.16;2090726;28;20033;-62
2022/02/03 15:21:12;;;;;;;9.30;5.90;;;;;;;6.58;96.09;101126.22;2090840;28;20028;-61
2022/02/03 15:22:12;;;;;;;6.70;4.03;;;;;;;6.56;96.45;101122.78;2090764;28;20477;-60
2022/02/03 15:23:12;;;;;;;10.90;4.77;;;;;;;6.56;96.54;101117.63;2090907;28;20477;-61
2022/02/03 15:24:12;;;;;;;6.90;3.63;;;;;;;6.56;96.66;101120.22;2090693;28;20095;-60
2022/02/03 15:25:13;;;;;;;9.10;5.00;;;;;;;6.54;97.05;101120.22;2090835;28;20032;-61
2022/02/03 15:26:13;;;;;;;8.50;4.50;;;;;;;6.53;96.23;101125.44;2090677;28;20134;-60
2022/02/03 15:27:15;;;;;;;7.83;4.87;;;;;;;6.52;97.20;101128.94;2090553;28;20033;-60
2022/02/03 15:28:17;;;;;;;8.73;4.80;;;;;;;6.50;97.02;101121.19;2090312;28;20021;-60
2022/02/03 15:29:18;;;;;;;9.38;5.00;;;;;;;6.49;96.77;101121.22;2090037;28;20032;-59
2022/02/03 15:30:18;;;;;;;7.38;4.57;;;;;;;6.49;96.92;101116.03;2090103;28;20045;-61
2022/02/03 15:31:20;;;;;;;7.03;4.40;;;;;;;6.48;96.37;101119.50;2090689;28;20041;-59
2022/02/03 15:32:20;;;;;;;6.95;4.00;;;;;;;6.46;97.03;101116.94;2090561;28;20033;-59
2022/02/03 15:33:28;;;;;;;7.60;4.87;;;;;;;6.47;97.01;101112.63;2090736;28;20067;-61
2022/02/03 15:34:28;;;;;;;8.93;4.45;;;;;;;6.47;97.01;101123.00;2090035;28;20025;-61
2022/02/03 15:36:35;;;;;;;6.43;4.03;;;;;;;6.44;97.11;101109.19;2090581;28;20085;-60
2022/02/03 15:37:36;;;;;;;8.27;4.72;;;;;;;6.44;97.17;101109.19;2090005;28;20088;-61
2022/02/03 15:38:38;;;;;;;7.05;5.40;;;;;;;6.42;96.89;101111.00;2089944;28;20464;-61
2022/02/03 15:39:47;;;;;;;9.45;5.43;;;;;;;6.41;97.82;101105.84;2090564;28;20028;-62
2022/02/03 15:40:50;;;;;;;9.15;5.40;;;;;;;6.39;97.61;101099.81;2090612;28;20400;-61
2022/02/03 15:41:53;;;;;;;6.47;4.63;;;;;;;6.39;97.57;101102.41;2090583;28;20033;-63
2022/02/03 15:43:02;;;;;;;8.82;5.10;;;;;;;6.37;97.72;101097.25;2090556;28;20424;-63
2022/02/03 15:44:03;;;;;;;8.15;4.43;;;;;;;6.37;97.44;101104.19;2090516;28;20101;-61
2022/02/03 15:45:05;;;;;;;8.65;5.13;;;;;;;6.35;97.77;101104.22;2090604;28;20091;-61
2022/02/03 15:46:05;;;;;;;10.07;6.35;;;;;;;6.36;97.64;101107.69;2090502;28;20057;-65
2022/02/03 15:47:14;;;;;;;11.10;4.73;;;;;;;6.35;97.78;101101.63;2089767;28;20037;-60
2022/02/03 15:48:42;;;;;;;7.78;5.00;;;;;;;6.34;97.57;101104.25;2090279;28;20342;-62
2022/02/03 15:50:24;;;;;;;8.70;5.25;;;;;;;6.34;97.56;101106.84;2090171;28;20517;-61
2022/02/03 15:57:41;;;;;;;12.07;4.43;;;;;;;6.34;98.14;101102.53;2090672;28;20377;-62
2022/02/03 16:15:36;;;;;;;7.47;4.80;;;;;;;6.33;97.78;101100.78;2090373;28;20127;-62
2022/02/03 16:17:18;;;;;;;8.18;4.88;;;;;;;6.33;98.56;101098.19;2092963;28;20033;-60
2022/02/03 16:18:20;;;;;;;9.63;5.78;;;;;;;6.31;98.17;101095.66;2089647;28;20489;-60
2022/02/03 16:19:24;;;;;;;9.60;5.72;;;;;;;6.31;98.20;101094.81;2089803;28;20072;-59
2022/02/03 16:20:31;;;;;;;7.97;6.30;;;;;;;6.29;98.12;101094.81;2090233;28;20029;-60
2022/02/03 16:21:45;;;;;;;9.48;5.30;;;;;;;6.29;98.76;101097.41;2089972;28;20017;-61
2022/02/03 16:22:52;;;;;;;11.93;5.20;;;;;;;6.30;98.82;101100.88;2089672;28;20417;-60
2022/02/03 16:24:17;;;;;;;7.90;5.38;;;;;;;6.30;98.33;101100.88;2089901;28;20032;-61
2022/02/03 16:26:43;;;;;;;7.83;4.70;;;;;;;6.29;98.80;101093.97;2089812;28;20029;-60
2022/02/03 16:40:48;;;;;;;7.05;5.20;;;;;;;6.24;98.82;101093.22;2090351;28;20056;-59
2022/02/03 16:51:27;;;;;;;10.00;5.50;;;;;;;6.09;100.00;101099.56;2089898;28;20037;-59
2022/02/03 16:52:42;;;;;;;8.32;6.47;;;;;;;6.08;100.00;101101.28;2089370;28;20029;-60
2022/02/03 16:53:43;;;;;;;10.75;6.95;;;;;;;6.10;100.00;101099.53;2089602;28;20028;-60
2022/02/03 16:54:43;;;;;;;12.27;6.77;;;;;;;6.10;100.00;101093.50;2089252;28;20512;-60
2022/02/03 16:55:45;;;;;;;10.93;6.23;;;;;;;6.10;100.00;101098.66;2089303;28;20044;-59
2022/02/03 16:56:49;;;;;;;11.93;6.40;;;;;;;6.11;100.00;101096.06;2089971;28;20024;-60
2022/02/03 16:57:52;;;;;;;9.30;6.15;;;;;;;6.12;100.00;101102.94;2089983;28;20032;-59
2022/02/03 16:58:52;;;;;;;13.45;7.32;;;;;;;6.11;100.00;101095.19;2089981;28;20024;-60
2022/02/03 17:00:14;;;;;;;14.97;7.07;;;;;;;6.12;100.00;101096.91;2090082;28;20029;-59
2022/02/03 17:01:14;;;;;;;9.93;7.00;;;;;;;6.13;100.00;101103.81;2090032;28;20033;-60
2022/02/03 17:02:15;;;;;;;17.77;8.07;;;;;;;6.12;100.00;101102.94;2090044;28;20477;-60
2022/02/03 17:03:16;;;;;;;;;;;;;;;6.23;100.00;101100.13;2090318;28;20074;-59
2022/02/03 17:04:18;;;;;;;12.20;6.63;;;;;;;6.17;100.00;101101.09;2090014;28;19986;-59
2022/02/03 17:05:18;;;;;;;9.95;7.22;;;;;;;6.14;100.00;101093.41;2090021;28;20033;-60
2022/02/03 17:06:18;;;;;;;12.00;6.30;;;;;;;6.12;100.00;101089.97;2090002;28;20116;-60
2022/02/03 17:07:19;;;;;;;11.23;7.20;;;;;;;6.12;100.00;101096.91;2089965;28;20116;-60
2022/02/03 17:08:20;;;;;;;10.80;7.50;;;;;;;6.11;100.00;101101.25;2090009;28;20059;-59
2022/02/03 17:09:20;;;;;;;10.27;7.25;;;;;;;6.10;100.00;101099.53;2090020;28;20025;-59
2022/02/03 17:10:21;;;;;;;9.97;6.90;;;;;;;6.10;100.00;101093.50;2089996;28;20051;-60
2022/02/03 17:11:21;;;;;;;9.52;6.70;;;;;;;6.09;100.00;101097.81;2090090;28;20052;-60
2022/02/03 17:12:22;;;;;;;11.47;7.23;;;;;;;6.09;100.00;101092.63;2089984;28;20025;-59
2022/02/03 17:13:22;;;;;;;8.93;6.28;;;;;;;6.11;100.00;101100.38;2089280;28;20091;-60
2022/02/03 17:14:23;;;;;;;16.03;7.40;;;;;;;6.10;100.00;101096.94;2089400;28;20035;-59
2022/02/03 17:15:23;;;;;;;9.37;6.87;;;;;;;6.10;100.00;101094.34;2089866;28;20052;-60
2022/02/03 17:16:23;;;;;;;12.03;7.70;;;;;;;6.08;100.00;101096.09;2090034;28;20040;-60
2022/02/03 17:17:25;;;;;;;14.03;7.47;;;;;;;6.08;100.00;101092.66;2089353;28;20381;-61
2022/02/03 17:18:25;;;;;;;12.98;8.05;;;;;;;6.05;100.00;101096.16;2089249;28;20311;-60
2022/02/03 17:19:26;;;;;;;11.87;7.70;;;;;;;6.06;100.00;101097.88;2089938;28;20021;-60
2022/02/03 17:20:29;;;;;;;15.83;9.57;;;;;;;6.08;100.00;101100.41;2089900;28;20029;-60
2022/02/03 17:21:31;;;;;;;12.05;7.10;;;;;;;6.06;100.00;101097.88;2089162;28;20385;-59
2022/02/03 17:22:36;;;;;;;9.15;7.40;;;;;;;6.07;100.00;101098.72;2089254;28;20544;-60
2022/02/03 17:23:37;;;;;;;16.17;7.40;;;;;;;6.05;100.00;101097.03;2089969;28;20039;-59
2022/02/03 17:24:41;;;;;;;11.87;8.07;;;;;;;6.07;100.00;101104.78;2089359;28;20555;-61
2022/02/03 17:27:30;;;;;;;12.63;9.45;;;;;;;6.06;100.00;101092.72;2080507;28;20037;-60
2022/02/03 17:28:38;;;;;;;13.00;7.78;;;;;;;6.05;100.00;101085.78;2080725;28;20022;-59
2022/02/03 17:30:54;;;;;;;12.93;8.07;;;;;;;6.05;100.00;101090.97;2089577;28;20044;-59
2022/02/03 17:32:11;;;;;;;13.00;7.45;;;;;;;6.05;100.00;101090.97;2089856;28;20416;-61
2022/02/03 18:19:52;;;;;;;16.40;11.55;;;;;;;6.03;100.00;101105.69;2091215;28;20568;-60
2022/02/03 18:26:28;;;;;;;14.73;10.45;;;;;;;6.04;100.00;101116.06;2091228;28;20067;-60
2022/02/03 18:30:11;;;;;;;15.80;11.05;;;;;;;6.05;100.00;101116.88;2091284;28;20042;-59
2022/02/03 18:31:27;;;;;;;17.15;11.15;;;;;;;6.05;100.00;101116.88;2090931;28;20400;-60
2022/02/03 18:36:15;;;;;;;14.10;10.75;;;;;;;6.04;100.00;101120.38;2090974;28;20517;-60
2022/02/03 18:45:51;;;;;;;19.42;12.35;;;;;;;6.04;100.00;101115.19;2090994;28;20491;-61
2022/02/03 18:56:04;;;;;;;16.17;11.95;;;;;;;6.05;100.00;101096.16;2090916;28;20039;-60
2022/02/03 18:57:27;;;;;;;20.90;12.07;;;;;;;6.07;100.00;101093.53;2090926;28;20367;-59
2022/02/03 19:09:22;;;;;;;19.13;11.80;;;;;;;6.12;100.00;101097.75;2090904;28;20123;-61
2022/02/03 19:14:38;;;;;;;16.63;11.18;;;;;;;6.14;100.00;101092.53;2090808;28;20029;-60
2022/02/03 19:25:17;;;;;;;21.13;14.00;;;;;;;6.15;100.00;101082.16;2081391;28;20041;-60
2022/02/03 19:28:55;;;;;;;23.13;14.13;;;;;;;6.16;100.00;101086.44;2081465;28;20029;-60
2022/02/03 20:04:24;;;;;;;22.65;14.07;;;;;;;6.24;100.00;101090.63;2090445;28;20047;-61
2022/02/03 20:08:16;;;;;;;24.35;14.25;;;;;;;6.25;100.00;101092.31;2090012;28;20032;-59
2022/02/03 20:10:25;;;;;;;23.47;14.60;;;;;;;6.25;100.00;101081.94;2089706;28;20071;-57
2022/02/03 20:11:28;;;;;;;24.23;13.65;;;;;;;6.26;100.00;101083.69;2090021;28;20020;-60
2022/02/03 20:12:28;;;;;;;21.45;13.35;;;;;;;6.26;100.00;101086.28;2090117;28;20025;-60
2022/02/03 20:13:28;;;;;;;22.43;14.77;;;;;;;6.27;100.00;101090.56;2090184;28;20526;-59
2022/02/03 20:14:28;;;;;;;21.30;14.27;;;;;;;6.26;100.00;101089.69;2090111;28;20477;-60
2022/02/03 20:15:29;;;;;;;23.93;15.00;;;;;;;6.27;100.00;101086.22;2090053;28;20031;-60
2022/02/03 20:16:30;;;;;;;24.65;13.68;;;;;;;6.28;100.00;101085.34;2090066;28;20077;-61
2022/02/03 20:17:30;;;;;;;23.13;13.83;;;;;;;6.27;100.00;101095.75;2090162;28;20025;-60
2022/02/03 20:18:30;;;;;;;23.40;14.63;;;;;;;6.27;100.00;101095.75;2090189;28;20013;-60
2022/02/03 20:19:31;;;;;;;24.90;15.17;;;;;;;6.27;100.00;101086.22;2089440;28;20029;-60
2022/02/03 20:20:35;;;;;;;23.37;13.93;;;;;;;6.27;100.00;101083.63;2089376;28;20029;-59
2022/02/03 20:21:36;;;;;;;24.98;15.00;;;;;;;6.28;100.00;101082.75;2090048;28;20032;-60
2022/02/03 20:22:39;;;;;;;24.35;14.65;;;;;;;6.29;100.00;101088.78;2089429;28;20479;-60
2022/02/03 20:23:43;;;;;;;20.90;13.90;;;;;;;6.30;100.00;101085.31;2089440;28;20020;-59
2022/02/03 20:24:43;;;;;;;24.25;14.02;;;;;;;6.28;100.00;101089.66;2089992;28;20055;-60
2022/02/03 20:25:51;;;;;;;24.10;14.70;;;;;;;6.28;100.00;101084.50;2090040;28;20029;-58
2022/02/03 20:26:52;;;;;;;23.17;15.02;;;;;;;6.28;100.00;101087.06;2089210;28;20444;-60
2022/02/03 20:27:52;;;;;;;26.10;15.10;;;;;;;6.27;100.00;101085.38;2089476;28;20017;-60
2022/02/03 20:28:52;;;;;;;26.43;15.00;;;;;;;6.28;100.00;101084.50;2090008;28;20033;-59
2022/02/03 20:29:54;;;;;;;26.97;15.27;;;;;;;6.28;100.00;101087.94;2090001;28;20036;-59
2022/02/03 20:30:55;;;;;;;24.95;14.02;;;;;;;6.28;100.00;101087.06;2090005;28;20032;-59
2022/02/03 20:31:55;;;;;;;24.13;14.93;;;;;;;6.29;100.00;101083.59;2090002;28;20481;-60
2022/02/03 20:32:56;;;;;;;24.33;14.63;;;;;;;6.28;100.00;101087.94;2089991;28;20083;-60
2022/02/03 20:33:56;;;;;;;22.23;13.70;;;;;;;6.29;100.00;101086.19;2097641;28;20099;-59
2022/02/03 20:34:58;;;;;;;29.07;14.27;;;;;;;6.29;100.00;101088.78;2097656;28;20428;-60
2022/02/03 20:35:58;;;;;;;22.63;13.88;;;;;;;6.28;100.00;101087.94;2089930;28;20107;-61
2022/02/03 20:36:58;;;;;;;25.47;15.07;;;;;;;6.29;100.00;101088.78;2090038;28;20021;-61
2022/02/03 20:37:58;;;;;;;25.30;14.33;;;;;;;6.30;100.00;101080.13;2089978;28;20454;-61
2022/02/03 20:38:59;;;;;;;26.03;15.03;;;;;;;6.30;100.00;101087.91;2089920;28;20389;-60
2022/02/03 20:39:59;;;;;;;21.03;13.30;;;;;;;6.30;100.00;101085.31;2090015;28;20025;-62
2022/02/03 20:41:00;;;;;;;25.60;14.93;;;;;;;6.30;100.00;101086.16;2090021;28;20119;-61
2022/02/03 20:42:00;;;;;;;24.37;14.27;;;;;;;6.29;100.00;101084.47;2089319;28;20025;-61
2022/02/03 20:43:01;;;;;;;21.43;13.83;;;;;;;6.30;100.00;101082.72;2089306;28;20059;-59
2022/02/03 20:44:01;;;;;;;24.95;14.68;;;;;;;6.31;100.00;101081.84;2089907;28;20090;-59
2022/02/03 20:45:02;;;;;;;27.77;15.70;;;;;;;6.30;100.00;101082.72;2089896;28;20025;-60
2022/02/03 20:46:05;;;;;;;26.98;15.18;;;;;;;6.30;100.00;101085.31;2089978;28;20025;-59
2022/02/03 20:47:05;;;;;;;25.75;15.77;;;;;;;6.29;100.00;101084.47;2089055;28;20468;-60
2022/02/03 20:48:05;;;;;;;23.33;13.90;;;;;;;6.31;100.00;101081.84;2089324;28;20091;-60
2022/02/03 20:49:06;;;;;;;28.92;14.90;;;;;;;6.31;100.00;101090.47;2089982;28;20069;-60
2022/02/03 20:50:09;;;;;;;28.07;15.30;;;;;;;6.32;100.00;101093.91;2089950;28;20116;-61
2022/02/03 20:51:09;;;;;;;26.77;16.08;;;;;;;6.32;100.00;101088.72;2089893;28;20036;-60
2022/02/03 20:52:10;;;;;;;27.57;14.33;;;;;;;6.32;100.00;101088.72;2089842;28;20059;-60
2022/02/03 20:53:10;;;;;;;22.52;14.05;;;;;;;6.32;100.00;101080.94;2089977;28;20029;-62
2022/02/03 20:54:10;;;;;;;25.23;14.53;;;;;;;6.33;100.00;101082.66;2089210;28;20024;-61
2022/02/03 20:55:11;;;;;;;27.87;16.17;;;;;;;6.34;100.00;101076.59;2081008;28;20068;-61
2022/02/03 20:56:14;;;;;;;28.75;16.58;;;;;;;6.34;100.00;101081.78;2089336;28;20131;-60
2022/02/03 20:57:15;;;;;;;25.70;14.50;;;;;;;6.33;100.00;101080.06;2089158;28;20021;-60
2022/02/03 20:58:18;;;;;;;27.37;15.83;;;;;;;6.33;100.00;101080.06;2089315;28;20021;-60
2022/02/03 20:59:25;;;;;;;26.25;15.02;;;;;;;6.33;100.00;101085.25;2089957;28;20280;-59
2022/02/03 21:00:35;;;;;;;28.27;16.73;;;;;;;6.33;100.00;101080.06;2089897;28;20384;-60
2022/02/03 21:01:37;;;;;;;25.05;15.27;;;;;;;6.33;100.00;101080.06;2089857;28;20032;-60
2022/02/03 21:02:55;;;;;;;35.13;17.38;;;;;;;6.34;100.00;101083.50;2089861;28;20025;-59
2022/02/03 21:04:27;;;;;;;23.65;14.60;;;;;;;6.34;100.00;101081.78;2089910;28;20031;-60
2022/02/03 21:05:18;;;;;;;27.52;16.25;;;;;;;6.35;100.00;101080.03;2089637;28;20111;-59
2022/02/03 21:06:19;;;;;;;31.23;16.87;;;;;;;6.35;100.00;101072.25;2089881;28;20033;-61
2022/02/03 21:07:19;;;;;;;29.88;15.82;;;;;;;6.36;100.00;101074.81;2089888;28;20029;-60
2022/02/03 21:08:28;;;;;;;31.70;17.50;;;;;;;6.36;100.00;101081.75;2089855;28;20551;-60
2022/02/03 21:09:29;;;;;;;33.45;16.70;;;;;;;6.37;100.00;101081.69;2091566;28;20013;-60
2022/02/03 21:10:31;;;;;;;37.10;18.80;;;;;;;6.35;100.00;101075.69;2091584;28;20103;-60
2022/02/03 21:11:31;;;;;;;29.48;16.98;;;;;;;6.37;100.00;101083.44;2090910;28;20027;-60
2022/02/03 21:12:32;;;;;;;30.40;17.93;;;;;;;6.36;100.00;101074.81;2090914;28;20036;-61
2022/02/03 21:13:33;;;;;;;35.95;18.38;;;;;;;6.36;100.00;101074.81;2091578;28;20025;-60
2022/02/03 21:14:33;;;;;;;34.05;18.05;;;;;;;6.36;100.00;101071.38;2091576;28;20017;-61
2022/02/03 21:15:37;;;;;;;34.33;18.60;;;;;;;6.36;100.00;101080.00;2091502;28;20074;-60
2022/02/03 21:16:39;;;;;;;32.10;17.65;;;;;;;6.36;100.00;101076.56;2091443;28;20025;-61
2022/02/03 21:17:40;;;;;;;35.40;18.58;;;;;;;6.35;100.00;101078.28;2091569;28;20485;-61
2022/02/03 21:18:42;;;;;;;30.52;17.10;;;;;;;6.36;100.00;101067.03;2091518;28;20029;-61
2022/02/03 21:19:43;;;;;;;43.17;19.88;;;;;;;6.37;100.00;101073.91;2091455;28;20037;-60
2022/02/03 21:20:45;;;;;;;31.60;15.33;;;;;;;6.37;100.00;101073.91;2091445;28;20051;-61
2022/02/03 21:21:45;;;;;;;31.52;17.70;;;;;;;6.38;100.00;101075.66;2091417;28;20033;-59
2022/02/03 21:22:46;;;;;;;32.60;18.73;;;;;;;6.37;100.00;101076.50;2091453;28;20481;-59
2022/02/03 21:23:46;;;;;;;31.45;17.55;;;;;;;6.37;100.00;101076.50;2091445;28;20114;-60
2022/02/03 21:24:47;;;;;;;38.30;19.77;;;;;;;6.37;100.00;101076.50;2091448;28;20021;-59
2022/02/03 21:25:52;;;;;;;34.53;19.35;;;;;;;6.35;100.00;101075.69;2091417;28;20526;-59
2022/02/03 21:26:56;;;;;;;40.63;18.52;;;;;;;6.35;100.00;101070.53;2090709;28;20112;-59
2022/02/03 21:28:03;;;;;;;41.83;19.50;;;;;;;6.35;100.00;101073.09;2091025;28;20021;-60
2022/02/03 21:29:03;;;;;;;36.05;18.38;;;;;;;6.35;100.00;101075.69;2098276;28;20021;-59
2022/02/03 21:30:06;;;;;;;40.87;20.37;;;;;;;6.34;100.00;101070.56;2091408;28;20112;-60
2022/02/03 21:31:07;;;;;;;39.33;21.10;;;;;;;6.35;100.00;101073.09;2091355;28;20028;-60
2022/02/03 21:32:07;;;;;;;36.63;19.70;;;;;;;6.34;100.00;101081.78;2091359;28;20466;-60
2022/02/03 21:33:12;;;;;;;42.10;21.07;;;;;;;6.34;100.00;101076.59;2091299;28;20079;-59
2022/02/03 21:34:16;;;;;;;39.65;20.83;;;;;;;6.33;100.00;101074.03;2091383;28;20159;-60
2022/02/03 21:35:19;;;;;;;33.90;18.00;;;;;;;6.32;100.00;101075.75;2091396;28;20452;-60
2022/02/03 21:36:22;;;;;;;37.03;19.33;;;;;;;6.30;100.00;101073.19;2091304;28;20485;-59
2022/02/03 21:37:22;;;;;;;38.35;20.52;;;;;;;6.30;100.00;101080.13;2091367;28;20100;-59
2022/02/03 21:38:23;;;;;;;42.47;22.37;;;;;;;6.30;100.00;101078.38;2091347;28;20381;-59
2022/02/03 21:39:24;;;;;;;40.42;20.30;;;;;;;6.30;100.00;101077.53;2091333;28;20025;-59
2022/02/03 21:40:24;;;;;;;35.57;19.10;;;;;;;6.29;100.00;101074.09;2091310;28;20025;-59